Aérodrome :
LOGIN :

S'inscrire | Disclaimer

   EN    FR    IT 

 










Légende :    VFR   VFR Marginal   IFR   IFR Intensif   IFR Très Intensif
Visi : 
Plafond : 
>= 8 km
>= 3000ft
5 à 8 km
1000 à 3000 ft
1500m à 5 km
500 à 1000 ft
800 à 1500m
200 à 500 ft
< 800m
< 200 ft
Symboles :   Orages  Brouillard  Fortes neiges  Fortes précipitations  Vent > 20 kt
SIGMETs :   Divers  Orages  Givrage  Turbulence  Onde Orograph.  Cendres Volcan.






- Altitude de l'aérodrome : 650 ft
- Code IATA : ZJI


LSZL - Locarno

DERNIER METAR :
  • 270050Z AUTO 00000KT 9999NDV FEW200 M00/M00 Q1020 RMK

METARs EXPIRÉS :
  • 270020Z AUTO 00000KT 9999NDV FEW180 00/00 Q1020 RMK
  • 262350Z AUTO 00000KT 9999NDV FEW160 00/00 Q1021 RMK
  • 262320Z AUTO 09001KT 9999NDV FEW170 M00/M00 Q1020 RMK
  • 262250Z AUTO VRB02KT 9999NDV FEW170 M00/M00 Q1020 RMK
  • 262220Z AUTO 00000KT 9999NDV FEW170 01/01 Q1020 RMK

Prévision TAF périmée.



MET'MAP, la Météo Aéronautique d'un coup d'oeil ! - Copyright ORBIFLY Décembre 2007 - Disclaimer

ORBIFLY MET'MAP TEAM :

Programmation & Développement : Alexandra Zaïnal
Sur une idée originale de : Baudouin d'Aumeries
Assistance à la programmation : Marc-Olivier Méhu
Soutien technique & logistique : Manuel Goepfert

Contact : metmap@orbifly.com




SOURCES & CREDITS :

   NOAA